createdAt,value
2023-05-19T00:03:26.991Z,12.18
2023-05-19T00:08:31.319Z,12.11
2023-05-19T00:13:33.436Z,12.07
2023-05-19T00:18:35.496Z,11.97
2023-05-19T00:23:37.299Z,11.91
2023-05-19T00:28:39.107Z,11.87
2023-05-19T00:33:41.120Z,11.85
2023-05-19T00:38:42.831Z,11.79
2023-05-19T00:43:44.847Z,11.75
2023-05-19T00:48:46.745Z,11.73
2023-05-19T00:53:51.001Z,11.72
2023-05-19T00:58:53.270Z,11.73
2023-05-19T01:03:58.909Z,11.69
2023-05-19T01:09:01.228Z,11.62
2023-05-19T01:14:03.038Z,11.52
2023-05-19T01:19:27.912Z,11.38
2023-05-19T01:24:41.586Z,11.25
2023-05-19T01:29:49.298Z,11.17
2023-05-19T01:34:53.827Z,11.08
2023-05-19T01:39:56.082Z,10.99
2023-05-19T01:44:58.232Z,10.96
2023-05-19T01:50:01.589Z,10.93
2023-05-19T01:55:03.591Z,11.01
2023-05-19T02:00:15.713Z,11.08
2023-05-19T02:05:29.410Z,11.03
2023-05-19T02:10:37.109Z,11.14
2023-05-19T02:15:44.762Z,11.30
2023-05-19T02:20:47.128Z,11.48
2023-05-19T02:25:48.894Z,11.57
2023-05-19T02:30:50.740Z,11.66
2023-05-19T02:35:52.503Z,11.70
2023-05-19T02:40:54.225Z,11.62
2023-05-19T02:45:56.326Z,11.57
2023-05-19T02:50:58.448Z,11.59
2023-05-19T02:56:00.726Z,11.62
2023-05-19T03:01:02.574Z,11.54
2023-05-19T03:06:04.970Z,11.65
2023-05-19T03:11:06.733Z,11.75
2023-05-19T03:16:08.844Z,11.77
2023-05-19T03:21:10.775Z,11.78
2023-05-19T03:26:13.026Z,11.76
2023-05-19T03:31:16.528Z,11.81
2023-05-19T03:36:18.521Z,11.89
2023-05-19T03:41:21.108Z,11.74
2023-05-19T03:46:23.332Z,11.67
2023-05-19T03:51:54.555Z,11.52
2023-05-19T03:57:05.116Z,11.58
2023-05-19T04:02:08.328Z,11.58
2023-05-19T04:07:10.237Z,11.55
2023-05-19T04:12:12.021Z,11.43
2023-05-19T04:17:14.376Z,11.37
2023-05-19T04:22:16.356Z,11.33
2023-05-19T04:27:18.413Z,11.36
2023-05-19T04:32:20.485Z,11.44
2023-05-19T04:37:22.691Z,11.57
2023-05-19T04:42:26.183Z,11.66
2023-05-19T04:47:30.085Z,11.62
2023-05-19T04:52:33.118Z,11.61
2023-05-19T04:57:37.561Z,11.58
2023-05-19T05:02:39.422Z,11.59
2023-05-19T05:07:42.305Z,11.57
2023-05-19T05:12:44.463Z,11.59
2023-05-19T05:17:46.589Z,11.67
2023-05-19T05:22:48.933Z,11.69
2023-05-19T05:27:51.355Z,11.75
2023-05-19T05:32:53.774Z,11.82
2023-05-19T05:38:06.505Z,12.04
2023-05-19T05:43:08.282Z,12.06
2023-05-19T05:48:16.803Z,12.03
2023-05-19T05:53:20.630Z,12.08
2023-05-19T05:58:25.839Z,12.11
2023-05-19T06:03:29.049Z,12.14
2023-05-19T06:08:34.807Z,12.22
2023-05-19T06:13:36.928Z,12.27
2023-05-19T06:18:41.786Z,12.32
2023-05-19T06:23:43.959Z,12.39
2023-05-19T06:28:47.262Z,12.45
2023-05-19T06:33:49.560Z,12.53
2023-05-19T06:38:52.187Z,12.67
2023-05-19T06:43:55.224Z,12.85
2023-05-19T06:48:57.331Z,12.89
2023-05-19T06:54:01.302Z,13.00
2023-05-19T06:59:04.146Z,13.16
2023-05-19T07:04:10.372Z,13.23
2023-05-19T07:09:12.661Z,13.28
2023-05-19T07:14:15.400Z,13.17
2023-05-19T07:19:19.635Z,13.06
2023-05-19T07:24:22.172Z,13.08
2023-05-19T07:29:24.300Z,13.10
2023-05-19T07:34:26.304Z,13.06
2023-05-19T07:39:29.843Z,13.09
2023-05-19T07:44:31.936Z,13.05
2023-05-19T07:49:33.855Z,13.08
2023-05-19T07:54:35.688Z,13.08
2023-05-19T07:59:37.530Z,13.16
2023-05-19T08:04:39.374Z,13.11
2023-05-19T08:09:41.398Z,13.17
2023-05-19T08:14:43.398Z,13.26
2023-05-19T08:19:45.347Z,13.25
2023-05-19T08:24:49.624Z,13.23
2023-05-19T08:29:51.393Z,13.29
2023-05-19T08:34:53.100Z,13.40
2023-05-19T08:39:54.933Z,13.45
2023-05-19T08:44:56.797Z,13.51
2023-05-19T08:50:07.512Z,13.51
2023-05-19T08:55:17.027Z,13.49
2023-05-19T09:00:19.914Z,13.40
2023-05-19T09:05:21.944Z,13.58
2023-05-19T09:10:23.953Z,13.76
2023-05-19T09:15:27.979Z,13.86
2023-05-19T09:20:30.698Z,13.90
2023-05-19T09:25:32.699Z,13.93
2023-05-19T09:30:34.588Z,13.88
2023-05-19T09:35:37.098Z,13.85
2023-05-19T09:40:39.281Z,13.84
2023-05-19T09:45:41.015Z,13.84
2023-05-19T09:50:45.435Z,13.90
2023-05-19T09:55:48.569Z,13.98
2023-05-19T10:00:51.014Z,14.12
2023-05-19T10:05:53.534Z,14.13
2023-05-19T10:10:57.236Z,14.19
2023-05-19T10:16:00.774Z,14.34
2023-05-19T10:21:03.568Z,14.49
2023-05-19T10:26:06.851Z,14.61
2023-05-19T10:31:14.792Z,14.60
2023-05-19T10:36:39.344Z,14.83
2023-05-19T10:42:10.748Z,15.00
2023-05-19T10:47:12.762Z,14.96
2023-05-19T10:52:30.023Z,14.98
2023-05-19T10:57:32.937Z,15.44
2023-05-19T11:02:43.178Z,15.88
2023-05-19T11:07:56.377Z,15.84
2023-05-19T11:12:58.463Z,15.61
2023-05-19T11:18:01.683Z,15.37
2023-05-19T11:23:03.426Z,15.49
2023-05-19T11:28:05.850Z,15.33
2023-05-19T11:33:08.155Z,15.33
2023-05-19T11:38:11.155Z,15.31
2023-05-19T11:43:13.609Z,15.48
2023-05-19T11:48:16.053Z,15.81
2023-05-19T11:53:19.518Z,16.00
2023-05-19T11:58:26.396Z,16.27
2023-05-19T12:03:29.550Z,16.72
2023-05-19T12:08:31.842Z,16.78
2023-05-19T12:13:33.850Z,17.09
2023-05-19T12:18:40.475Z,17.17
2023-05-19T12:23:42.537Z,17.21
2023-05-19T12:28:45.720Z,17.14
2023-05-19T12:33:53.685Z,17.30
2023-05-19T12:38:55.801Z,17.35
2023-05-19T12:43:57.559Z,17.34
2023-05-19T12:49:01.056Z,17.37
2023-05-19T12:54:04.718Z,17.04
2023-05-19T12:59:07.399Z,17.00
2023-05-19T13:04:09.257Z,16.94
2023-05-19T13:09:11.593Z,17.01
2023-05-19T13:14:15.728Z,17.21
2023-05-19T13:24:24.769Z,17.52
2023-05-19T13:29:28.191Z,17.46
2023-05-19T13:34:29.943Z,17.41
2023-05-19T13:39:31.783Z,17.67
2023-05-19T13:44:33.616Z,17.88
2023-05-19T13:49:35.705Z,17.81
2023-05-19T13:54:37.467Z,17.97
2023-05-19T13:59:45.857Z,18.12
2023-05-19T14:04:59.505Z,18.33
2023-05-19T14:10:02.725Z,18.69
2023-05-19T14:15:06.311Z,18.99
2023-05-19T14:20:08.559Z,19.18
2023-05-19T14:25:10.601Z,19.38
2023-05-19T14:30:12.795Z,19.23
2023-05-19T14:35:16.478Z,19.12
2023-05-19T14:40:18.773Z,18.73
2023-05-19T14:45:21.156Z,18.50
2023-05-19T14:50:22.955Z,18.41
2023-05-19T14:55:25.074Z,18.23
2023-05-19T15:00:26.946Z,18.28
2023-05-19T15:05:28.624Z,18.63
2023-05-19T15:10:30.980Z,18.86
2023-05-19T15:15:32.738Z,18.71
2023-05-19T15:20:34.925Z,18.84
2023-05-19T15:25:37.802Z,18.91
2023-05-19T15:30:40.008Z,18.91
2023-05-19T15:35:41.932Z,19.02
2023-05-19T15:40:43.834Z,18.94
2023-05-19T15:45:46.066Z,19.02
2023-05-19T15:50:48.780Z,19.12
2023-05-19T15:55:50.974Z,19.11
2023-05-19T16:00:52.731Z,19.11
2023-05-19T16:05:55.032Z,18.97
2023-05-19T16:10:56.780Z,18.83
2023-05-19T16:15:58.652Z,18.75
2023-05-19T16:21:00.772Z,18.66
2023-05-19T16:26:02.549Z,18.56
2023-05-19T16:31:04.517Z,18.47
2023-05-19T16:36:06.489Z,18.46
2023-05-19T16:41:11.574Z,18.54
2023-05-19T16:46:13.488Z,18.56
2023-05-19T16:51:15.284Z,18.54
2023-05-19T16:56:17.122Z,18.57
2023-05-19T17:01:22.214Z,18.65
2023-05-19T17:06:23.897Z,18.76
2023-05-19T17:11:27.088Z,18.82
2023-05-19T17:16:28.890Z,18.85
2023-05-19T17:21:31.890Z,18.82
2023-05-19T17:26:34.916Z,18.88
2023-05-19T17:31:36.775Z,18.79
2023-05-19T17:36:38.504Z,18.69
2023-05-19T17:41:40.381Z,18.59
2023-05-19T17:46:42.116Z,18.54
2023-05-19T17:51:44.207Z,18.42
2023-05-19T17:56:46.403Z,18.29
2023-05-19T18:01:48.512Z,18.18
2023-05-19T18:06:52.080Z,18.08
2023-05-19T18:11:55.014Z,18.01
2023-05-19T18:16:56.853Z,17.92
2023-05-19T18:21:59.105Z,17.82
2023-05-19T18:27:00.835Z,17.74
2023-05-19T18:32:03.346Z,17.66
2023-05-19T18:37:05.380Z,17.60
2023-05-19T18:42:07.306Z,17.54
2023-05-19T18:47:09.083Z,17.45
2023-05-19T18:52:11.479Z,17.35
2023-05-19T18:57:14.646Z,17.25
2023-05-19T19:02:16.438Z,17.15
2023-05-19T19:07:18.550Z,17.05
2023-05-19T19:12:20.540Z,16.98
2023-05-19T19:17:22.717Z,16.92
2023-05-19T19:22:25.111Z,16.82
2023-05-19T19:27:30.902Z,16.75
2023-05-19T19:32:33.834Z,16.67
2023-05-19T19:37:35.731Z,16.61
2023-05-19T19:42:38.452Z,16.55
2023-05-19T19:47:40.395Z,16.49
2023-05-19T19:52:42.182Z,16.44
2023-05-19T19:57:45.927Z,16.40
2023-05-19T20:03:03.514Z,16.36
2023-05-19T20:08:06.630Z,16.33
2023-05-19T20:13:08.543Z,16.27
2023-05-19T20:18:11.226Z,16.24
2023-05-19T20:23:13.394Z,16.19
2023-05-19T20:28:15.435Z,16.11
2023-05-19T20:33:17.295Z,16.06
2023-05-19T20:38:19.002Z,16.03
2023-05-19T20:43:21.236Z,15.99
2023-05-19T20:48:23.487Z,15.95
2023-05-19T20:53:25.685Z,15.92
2023-05-19T20:58:30.109Z,15.86
2023-05-19T21:03:32.279Z,15.77
2023-05-19T21:08:34.094Z,15.67
2023-05-19T21:13:39.076Z,15.66
2023-05-19T21:18:41.237Z,15.67
2023-05-19T21:23:43.093Z,15.69
2023-05-19T21:28:44.895Z,15.69
2023-05-19T21:33:46.733Z,15.70
2023-05-19T21:38:48.844Z,15.69
2023-05-19T21:43:50.766Z,15.66
2023-05-19T21:48:52.518Z,15.68
2023-05-19T21:53:54.250Z,15.68
2023-05-19T21:58:56.087Z,15.65
2023-05-19T22:03:58.167Z,15.64
2023-05-19T22:09:02.216Z,15.64
2023-05-19T22:14:04.012Z,15.64
2023-05-19T22:19:05.733Z,15.62
2023-05-19T22:24:08.045Z,15.59
2023-05-19T22:29:14.995Z,15.56
2023-05-19T22:34:17.356Z,15.54
2023-05-19T22:39:19.070Z,15.47
2023-05-19T22:44:20.824Z,15.35
2023-05-19T22:49:26.497Z,15.21
2023-05-19T22:54:28.303Z,15.08
2023-05-19T22:59:30.536Z,14.98
2023-05-19T23:04:33.457Z,14.94
2023-05-19T23:09:35.166Z,14.98
2023-05-19T23:14:36.991Z,15.00
2023-05-19T23:19:38.779Z,15.04
2023-05-19T23:24:40.560Z,15.03
2023-05-19T23:29:42.247Z,14.97
2023-05-19T23:34:44.082Z,14.62
2023-05-19T23:39:45.948Z,14.22
2023-05-19T23:44:47.753Z,14.14
2023-05-19T23:49:49.556Z,14.04
2023-05-19T23:54:51.435Z,13.72
2023-05-19T23:59:53.108Z,13.43
